sensor_id;sensor_type;location;lat;lon;timestamp;temperature;humidity
15426;DHT22;7812;50.072;7.036;2024-02-28T00:02:11;6.60;99.90
15426;DHT22;7812;50.072;7.036;2024-02-28T00:04:39;6.50;99.90
15426;DHT22;7812;50.072;7.036;2024-02-28T00:07:05;6.40;99.90
15426;DHT22;7812;50.072;7.036;2024-02-28T00:09:31;6.50;99.90
15426;DHT22;7812;50.072;7.036;2024-02-28T00:11:57;6.60;99.90
15426;DHT22;7812;50.072;7.036;2024-02-28T00:14:22;6.00;99.90
15426;DHT22;7812;50.072;7.036;2024-02-28T00:16:48;6.20;99.90
15426;DHT22;7812;50.072;7.036;2024-02-28T00:19:14;6.30;99.90
15426;DHT22;7812;50.072;7.036;2024-02-28T00:21:40;6.20;99.90
15426;DHT22;7812;50.072;7.036;2024-02-28T00:24:06;6.20;99.90
15426;DHT22;7812;50.072;7.036;2024-02-28T00:26:32;6.30;99.90
15426;DHT22;7812;50.072;7.036;2024-02-28T00:28:58;6.30;99.90
15426;DHT22;7812;50.072;7.036;2024-02-28T00:31:23;6.10;99.90
15426;DHT22;7812;50.072;7.036;2024-02-28T00:33:49;6.10;99.90
15426;DHT22;7812;50.072;7.036;2024-02-28T00:36:15;6.00;99.90
15426;DHT22;7812;50.072;7.036;2024-02-28T00:38:41;5.60;99.90
15426;DHT22;7812;50.072;7.036;2024-02-28T00:41:07;5.40;99.90
15426;DHT22;7812;50.072;7.036;2024-02-28T00:43:33;5.20;99.90
15426;DHT22;7812;50.072;7.036;2024-02-28T00:45:58;4.90;99.90
15426;DHT22;7812;50.072;7.036;2024-02-28T00:48:25;5.10;99.90
15426;DHT22;7812;50.072;7.036;2024-02-28T00:50:50;5.20;99.90
15426;DHT22;7812;50.072;7.036;2024-02-28T00:53:17;5.20;99.90
15426;DHT22;7812;50.072;7.036;2024-02-28T00:55:43;5.10;99.90
15426;DHT22;7812;50.072;7.036;2024-02-28T00:58:08;5.00;99.90
15426;DHT22;7812;50.072;7.036;2024-02-28T01:00:34;4.70;99.90
15426;DHT22;7812;50.072;7.036;2024-02-28T01:03:00;4.40;99.90
15426;DHT22;7812;50.072;7.036;2024-02-28T01:05:29;4.90;99.90
15426;DHT22;7812;50.072;7.036;2024-02-28T01:07:55;5.10;99.90
15426;DHT22;7812;50.072;7.036;2024-02-28T01:10:21;5.10;99.90
15426;DHT22;7812;50.072;7.036;2024-02-28T01:12:46;5.30;99.90
15426;DHT22;7812;50.072;7.036;2024-02-28T01:15:12;5.70;99.90
15426;DHT22;7812;50.072;7.036;2024-02-28T01:17:38;5.60;99.90
15426;DHT22;7812;50.072;7.036;2024-02-28T01:20:05;5.60;99.90
15426;DHT22;7812;50.072;7.036;2024-02-28T01:22:32;5.60;99.90
15426;DHT22;7812;50.072;7.036;2024-02-28T01:24:58;5.60;99.90
15426;DHT22;7812;50.072;7.036;2024-02-28T01:27:24;5.70;99.90
15426;DHT22;7812;50.072;7.036;2024-02-28T01:29:50;5.40;99.90
15426;DHT22;7812;50.072;7.036;2024-02-28T01:32:15;5.60;99.90
15426;DHT22;7812;50.072;7.036;2024-02-28T01:34:41;5.30;99.90
15426;DHT22;7812;50.072;7.036;2024-02-28T01:37:07;5.70;99.90
15426;DHT22;7812;50.072;7.036;2024-02-28T01:39:32;5.90;99.90
15426;DHT22;7812;50.072;7.036;2024-02-28T01:41:58;6.00;99.90
15426;DHT22;7812;50.072;7.036;2024-02-28T01:44:23;5.90;99.90
15426;DHT22;7812;50.072;7.036;2024-02-28T01:46:49;5.40;99.90
15426;DHT22;7812;50.072;7.036;2024-02-28T01:49:16;4.70;99.90
15426;DHT22;7812;50.072;7.036;2024-02-28T01:51:42;4.50;99.90
15426;DHT22;7812;50.072;7.036;2024-02-28T01:54:10;4.40;99.90
15426;DHT22;7812;50.072;7.036;2024-02-28T01:56:36;4.90;99.90
15426;DHT22;7812;50.072;7.036;2024-02-28T01:59:04;4.90;99.90
15426;DHT22;7812;50.072;7.036;2024-02-28T02:01:30;4.70;99.90
15426;DHT22;7812;50.072;7.036;2024-02-28T02:03:55;4.60;99.90
15426;DHT22;7812;50.072;7.036;2024-02-28T02:06:21;4.80;99.90
15426;DHT22;7812;50.072;7.036;2024-02-28T02:08:48;5.00;99.90
15426;DHT22;7812;50.072;7.036;2024-02-28T02:11:17;5.00;99.90
15426;DHT22;7812;50.072;7.036;2024-02-28T02:13:53;5.10;99.90
15426;DHT22;7812;50.072;7.036;2024-02-28T02:16:19;5.30;99.90
15426;DHT22;7812;50.072;7.036;2024-02-28T02:18:47;5.40;99.90
15426;DHT22;7812;50.072;7.036;2024-02-28T02:21:17;5.60;99.90
15426;DHT22;7812;50.072;7.036;2024-02-28T02:23:43;5.80;99.90
15426;DHT22;7812;50.072;7.036;2024-02-28T02:26:09;5.70;99.90
15426;DHT22;7812;50.072;7.036;2024-02-28T02:28:34;5.50;99.90
15426;DHT22;7812;50.072;7.036;2024-02-28T02:31:00;5.50;99.90
15426;DHT22;7812;50.072;7.036;2024-02-28T02:33:26;5.10;99.90
15426;DHT22;7812;50.072;7.036;2024-02-28T02:35:53;4.60;99.90
15426;DHT22;7812;50.072;7.036;2024-02-28T02:38:18;4.60;99.90
15426;DHT22;7812;50.072;7.036;2024-02-28T02:40:47;4.80;99.90
15426;DHT22;7812;50.072;7.036;2024-02-28T02:43:14;4.90;99.90
15426;DHT22;7812;50.072;7.036;2024-02-28T02:45:39;4.90;99.90
15426;DHT22;7812;50.072;7.036;2024-02-28T02:48:05;4.80;99.90
15426;DHT22;7812;50.072;7.036;2024-02-28T02:50:31;4.90;99.90
15426;DHT22;7812;50.072;7.036;2024-02-28T02:52:56;4.90;99.90
15426;DHT22;7812;50.072;7.036;2024-02-28T02:55:22;5.00;99.90
15426;DHT22;7812;50.072;7.036;2024-02-28T02:57:48;4.90;99.90
15426;DHT22;7812;50.072;7.036;2024-02-28T03:00:14;5.00;99.90
15426;DHT22;7812;50.072;7.036;2024-02-28T03:02:39;4.50;99.90
15426;DHT22;7812;50.072;7.036;2024-02-28T03:05:05;4.20;99.90
15426;DHT22;7812;50.072;7.036;2024-02-28T03:07:31;4.30;99.90
15426;DHT22;7812;50.072;7.036;2024-02-28T03:09:57;4.50;99.90
15426;DHT22;7812;50.072;7.036;2024-02-28T03:12:23;4.30;99.90
15426;DHT22;7812;50.072;7.036;2024-02-28T03:14:49;4.50;99.90
15426;DHT22;7812;50.072;7.036;2024-02-28T03:17:14;4.60;99.90
15426;DHT22;7812;50.072;7.036;2024-02-28T03:19:41;4.80;99.90
15426;DHT22;7812;50.072;7.036;2024-02-28T03:22:07;5.00;99.90
15426;DHT22;7812;50.072;7.036;2024-02-28T03:24:32;5.40;99.90
15426;DHT22;7812;50.072;7.036;2024-02-28T03:27:02;5.70;99.90
15426;DHT22;7812;50.072;7.036;2024-02-28T03:29:27;6.00;99.90
15426;DHT22;7812;50.072;7.036;2024-02-28T03:31:53;6.00;99.90
15426;DHT22;7812;50.072;7.036;2024-02-28T03:34:19;5.90;99.90
15426;DHT22;7812;50.072;7.036;2024-02-28T03:36:45;5.70;99.90
15426;DHT22;7812;50.072;7.036;2024-02-28T03:39:11;5.60;99.90
15426;DHT22;7812;50.072;7.036;2024-02-28T03:41:37;5.70;99.90
15426;DHT22;7812;50.072;7.036;2024-02-28T03:44:02;5.00;99.90
15426;DHT22;7812;50.072;7.036;2024-02-28T03:46:28;4.70;99.90
15426;DHT22;7812;50.072;7.036;2024-02-28T03:48:53;5.00;99.90
15426;DHT22;7812;50.072;7.036;2024-02-28T03:51:19;5.40;99.90
15426;DHT22;7812;50.072;7.036;2024-02-28T03:53:45;5.70;99.90
15426;DHT22;7812;50.072;7.036;2024-02-28T03:56:10;5.60;99.90
15426;DHT22;7812;50.072;7.036;2024-02-28T03:58:37;5.60;99.90
15426;DHT22;7812;50.072;7.036;2024-02-28T04:01:03;5.70;99.90
15426;DHT22;7812;50.072;7.036;2024-02-28T04:03:29;5.60;99.90
15426;DHT22;7812;50.072;7.036;2024-02-28T04:05:54;5.50;99.90
15426;DHT22;7812;50.072;7.036;2024-02-28T04:08:20;5.40;99.90
15426;DHT22;7812;50.072;7.036;2024-02-28T04:10:47;5.10;99.90
15426;DHT22;7812;50.072;7.036;2024-02-28T04:13:12;5.20;99.90
15426;DHT22;7812;50.072;7.036;2024-02-28T04:15:38;5.40;99.90
15426;DHT22;7812;50.072;7.036;2024-02-28T04:18:04;5.30;99.90
15426;DHT22;7812;50.072;7.036;2024-02-28T04:20:30;5.30;99.90
15426;DHT22;7812;50.072;7.036;2024-02-28T04:22:55;5.40;99.90
15426;DHT22;7812;50.072;7.036;2024-02-28T04:25:21;5.40;99.90
15426;DHT22;7812;50.072;7.036;2024-02-28T04:27:47;5.60;99.90
15426;DHT22;7812;50.072;7.036;2024-02-28T04:30:13;5.60;99.90
15426;DHT22;7812;50.072;7.036;2024-02-28T04:32:38;5.60;99.90
15426;DHT22;7812;50.072;7.036;2024-02-28T04:35:04;5.60;99.90
15426;DHT22;7812;50.072;7.036;2024-02-28T04:37:30;5.70;99.90
15426;DHT22;7812;50.072;7.036;2024-02-28T04:39:55;5.70;99.90
15426;DHT22;7812;50.072;7.036;2024-02-28T04:42:21;5.70;99.90
15426;DHT22;7812;50.072;7.036;2024-02-28T04:44:47;5.80;99.90
15426;DHT22;7812;50.072;7.036;2024-02-28T04:47:12;5.60;99.90
15426;DHT22;7812;50.072;7.036;2024-02-28T04:49:38;5.30;99.90
15426;DHT22;7812;50.072;7.036;2024-02-28T04:52:06;5.10;99.90
15426;DHT22;7812;50.072;7.036;2024-02-28T04:54:32;5.10;99.90
15426;DHT22;7812;50.072;7.036;2024-02-28T04:56:58;5.10;99.90
15426;DHT22;7812;50.072;7.036;2024-02-28T04:59:23;5.00;99.90
15426;DHT22;7812;50.072;7.036;2024-02-28T05:01:49;4.80;99.90
15426;DHT22;7812;50.072;7.036;2024-02-28T05:04:15;4.60;99.90
15426;DHT22;7812;50.072;7.036;2024-02-28T05:06:40;4.60;99.90
15426;DHT22;7812;50.072;7.036;2024-02-28T05:09:06;4.60;99.90
15426;DHT22;7812;50.072;7.036;2024-02-28T05:11:32;4.80;99.90
15426;DHT22;7812;50.072;7.036;2024-02-28T05:13:58;4.70;99.90
15426;DHT22;7812;50.072;7.036;2024-02-28T05:16:23;4.80;99.90
15426;DHT22;7812;50.072;7.036;2024-02-28T05:18:49;4.90;99.90
15426;DHT22;7812;50.072;7.036;2024-02-28T05:21:14;5.00;99.90
15426;DHT22;7812;50.072;7.036;2024-02-28T05:23:40;5.10;99.90
15426;DHT22;7812;50.072;7.036;2024-02-28T05:26:06;5.20;99.90
15426;DHT22;7812;50.072;7.036;2024-02-28T05:28:35;5.30;99.90
15426;DHT22;7812;50.072;7.036;2024-02-28T05:31:23;5.20;99.90
15426;DHT22;7812;50.072;7.036;2024-02-28T05:33:53;5.30;99.90
15426;DHT22;7812;50.072;7.036;2024-02-28T05:36:20;5.50;99.90
15426;DHT22;7812;50.072;7.036;2024-02-28T05:38:47;5.70;99.90
15426;DHT22;7812;50.072;7.036;2024-02-28T05:41:12;5.60;99.90
15426;DHT22;7812;50.072;7.036;2024-02-28T05:43:39;5.30;99.90
15426;DHT22;7812;50.072;7.036;2024-02-28T05:46:04;5.00;99.90
15426;DHT22;7812;50.072;7.036;2024-02-28T05:48:30;5.20;99.90
15426;DHT22;7812;50.072;7.036;2024-02-28T05:50:55;5.30;99.90
15426;DHT22;7812;50.072;7.036;2024-02-28T05:53:21;5.30;99.90
15426;DHT22;7812;50.072;7.036;2024-02-28T05:55:47;5.20;99.90
15426;DHT22;7812;50.072;7.036;2024-02-28T05:58:13;5.40;99.90
15426;DHT22;7812;50.072;7.036;2024-02-28T06:00:39;5.40;99.90
15426;DHT22;7812;50.072;7.036;2024-02-28T06:03:05;5.70;99.90
15426;DHT22;7812;50.072;7.036;2024-02-28T06:05:30;5.80;99.90
15426;DHT22;7812;50.072;7.036;2024-02-28T06:07:56;5.50;99.90
15426;DHT22;7812;50.072;7.036;2024-02-28T06:10:22;4.90;99.90
15426;DHT22;7812;50.072;7.036;2024-02-28T06:12:47;4.60;99.90
15426;DHT22;7812;50.072;7.036;2024-02-28T06:15:13;4.50;99.90
15426;DHT22;7812;50.072;7.036;2024-02-28T06:17:39;4.50;99.90
15426;DHT22;7812;50.072;7.036;2024-02-28T06:20:05;4.70;99.90
15426;DHT22;7812;50.072;7.036;2024-02-28T06:22:31;4.60;99.90
15426;DHT22;7812;50.072;7.036;2024-02-28T06:24:57;4.70;99.90
15426;DHT22;7812;50.072;7.036;2024-02-28T06:27:23;4.70;99.90
15426;DHT22;7812;50.072;7.036;2024-02-28T06:29:48;4.90;99.90
15426;DHT22;7812;50.072;7.036;2024-02-28T06:32:14;4.90;99.90
15426;DHT22;7812;50.072;7.036;2024-02-28T06:34:40;4.80;99.90
15426;DHT22;7812;50.072;7.036;2024-02-28T06:37:07;4.80;99.90
15426;DHT22;7812;50.072;7.036;2024-02-28T06:39:32;4.90;99.90
15426;DHT22;7812;50.072;7.036;2024-02-28T06:41:58;5.00;99.90
15426;DHT22;7812;50.072;7.036;2024-02-28T06:44:24;4.80;99.90
15426;DHT22;7812;50.072;7.036;2024-02-28T06:46:50;4.50;99.90
15426;DHT22;7812;50.072;7.036;2024-02-28T06:49:15;4.30;99.90
15426;DHT22;7812;50.072;7.036;2024-02-28T06:51:43;4.30;99.90
15426;DHT22;7812;50.072;7.036;2024-02-28T06:54:09;4.40;99.90
15426;DHT22;7812;50.072;7.036;2024-02-28T06:56:36;4.50;99.90
15426;DHT22;7812;50.072;7.036;2024-02-28T06:59:02;4.60;99.90
15426;DHT22;7812;50.072;7.036;2024-02-28T07:01:29;4.40;99.90
15426;DHT22;7812;50.072;7.036;2024-02-28T07:03:55;4.50;99.90
15426;DHT22;7812;50.072;7.036;2024-02-28T07:06:20;4.60;99.90
15426;DHT22;7812;50.072;7.036;2024-02-28T07:08:46;4.80;99.90
15426;DHT22;7812;50.072;7.036;2024-02-28T07:11:15;4.90;99.90
15426;DHT22;7812;50.072;7.036;2024-02-28T07:13:41;4.70;99.90
15426;DHT22;7812;50.072;7.036;2024-02-28T07:16:07;4.50;99.90
15426;DHT22;7812;50.072;7.036;2024-02-28T07:18:33;4.30;99.90
15426;DHT22;7812;50.072;7.036;2024-02-28T07:20:59;4.40;99.90
15426;DHT22;7812;50.072;7.036;2024-02-28T07:23:25;4.60;99.90
15426;DHT22;7812;50.072;7.036;2024-02-28T07:25:50;4.50;99.90
15426;DHT22;7812;50.072;7.036;2024-02-28T07:28:16;4.50;99.90
15426;DHT22;7812;50.072;7.036;2024-02-28T07:30:42;4.30;99.90
15426;DHT22;7812;50.072;7.036;2024-02-28T07:33:09;4.20;99.90
15426;DHT22;7812;50.072;7.036;2024-02-28T07:35:48;4.20;99.90
15426;DHT22;7812;50.072;7.036;2024-02-28T07:38:14;4.50;99.90
15426;DHT22;7812;50.072;7.036;2024-02-28T07:40:40;3.70;99.90
15426;DHT22;7812;50.072;7.036;2024-02-28T07:43:05;3.60;99.90
15426;DHT22;7812;50.072;7.036;2024-02-28T07:45:31;3.80;99.90
15426;DHT22;7812;50.072;7.036;2024-02-28T07:47:57;3.90;99.90
15426;DHT22;7812;50.072;7.036;2024-02-28T07:50:23;4.50;99.90
15426;DHT22;7812;50.072;7.036;2024-02-28T07:52:48;4.80;99.90
15426;DHT22;7812;50.072;7.036;2024-02-28T07:55:14;4.90;99.90
15426;DHT22;7812;50.072;7.036;2024-02-28T07:57:39;5.00;99.90
15426;DHT22;7812;50.072;7.036;2024-02-28T08:00:06;5.00;99.90
15426;DHT22;7812;50.072;7.036;2024-02-28T08:02:31;5.20;99.90
15426;DHT22;7812;50.072;7.036;2024-02-28T08:04:57;5.20;99.90
15426;DHT22;7812;50.072;7.036;2024-02-28T08:07:23;5.30;99.90
15426;DHT22;7812;50.072;7.036;2024-02-28T08:09:48;5.50;99.90
15426;DHT22;7812;50.072;7.036;2024-02-28T08:12:14;5.40;99.90
15426;DHT22;7812;50.072;7.036;2024-02-28T08:14:40;5.40;99.90
15426;DHT22;7812;50.072;7.036;2024-02-28T08:17:05;5.50;99.90
15426;DHT22;7812;50.072;7.036;2024-02-28T08:19:31;5.60;99.90
15426;DHT22;7812;50.072;7.036;2024-02-28T08:21:56;5.50;99.90
15426;DHT22;7812;50.072;7.036;2024-02-28T08:24:22;5.40;99.90
15426;DHT22;7812;50.072;7.036;2024-02-28T08:26:48;5.40;99.90
15426;DHT22;7812;50.072;7.036;2024-02-28T08:29:13;4.80;99.90
15426;DHT22;7812;50.072;7.036;2024-02-28T08:31:43;4.50;99.90
15426;DHT22;7812;50.072;7.036;2024-02-28T08:34:09;4.50;99.90
15426;DHT22;7812;50.072;7.036;2024-02-28T08:36:35;4.70;99.90
15426;DHT22;7812;50.072;7.036;2024-02-28T08:39:02;4.90;99.90
15426;DHT22;7812;50.072;7.036;2024-02-28T08:41:33;5.30;99.90
15426;DHT22;7812;50.072;7.036;2024-02-28T08:43:59;5.30;99.90
15426;DHT22;7812;50.072;7.036;2024-02-28T08:46:25;5.20;99.90
15426;DHT22;7812;50.072;7.036;2024-02-28T08:48:50;5.40;99.90
15426;DHT22;7812;50.072;7.036;2024-02-28T08:51:16;5.80;99.90
15426;DHT22;7812;50.072;7.036;2024-02-28T08:53:42;5.20;99.90
15426;DHT22;7812;50.072;7.036;2024-02-28T08:56:07;4.40;99.90
15426;DHT22;7812;50.072;7.036;2024-02-28T08:58:33;4.80;99.90
15426;DHT22;7812;50.072;7.036;2024-02-28T09:00:58;5.10;99.90
15426;DHT22;7812;50.072;7.036;2024-02-28T09:03:24;5.20;99.90
15426;DHT22;7812;50.072;7.036;2024-02-28T09:05:50;5.70;99.90
15426;DHT22;7812;50.072;7.036;2024-02-28T09:08:15;6.00;99.90
15426;DHT22;7812;50.072;7.036;2024-02-28T09:10:41;5.90;99.90
15426;DHT22;7812;50.072;7.036;2024-02-28T09:13:07;5.60;99.90
15426;DHT22;7812;50.072;7.036;2024-02-28T09:15:35;5.60;99.90
15426;DHT22;7812;50.072;7.036;2024-02-28T09:18:01;6.10;99.90
15426;DHT22;7812;50.072;7.036;2024-02-28T09:20:26;6.10;99.90
15426;DHT22;7812;50.072;7.036;2024-02-28T09:22:52;6.20;99.90
15426;DHT22;7812;50.072;7.036;2024-02-28T09:25:17;6.40;99.90
15426;DHT22;7812;50.072;7.036;2024-02-28T09:27:44;6.70;99.90
15426;DHT22;7812;50.072;7.036;2024-02-28T09:30:10;6.10;99.90
15426;DHT22;7812;50.072;7.036;2024-02-28T09:32:35;6.30;99.90
15426;DHT22;7812;50.072;7.036;2024-02-28T09:35:03;6.10;99.90
15426;DHT22;7812;50.072;7.036;2024-02-28T09:37:30;6.00;99.90
15426;DHT22;7812;50.072;7.036;2024-02-28T09:39:57;6.00;99.90
15426;DHT22;7812;50.072;7.036;2024-02-28T09:42:23;5.90;99.90
15426;DHT22;7812;50.072;7.036;2024-02-28T09:44:49;5.90;99.90
15426;DHT22;7812;50.072;7.036;2024-02-28T09:47:14;5.80;99.90
15426;DHT22;7812;50.072;7.036;2024-02-28T09:49:42;5.80;99.90
15426;DHT22;7812;50.072;7.036;2024-02-28T09:52:08;6.20;99.90
15426;DHT22;7812;50.072;7.036;2024-02-28T09:54:34;6.60;99.90
15426;DHT22;7812;50.072;7.036;2024-02-28T09:57:00;6.90;99.90
15426;DHT22;7812;50.072;7.036;2024-02-28T09:59:26;7.20;99.90
15426;DHT22;7812;50.072;7.036;2024-02-28T10:02:00;7.30;99.90
15426;DHT22;7812;50.072;7.036;2024-02-28T10:04:27;7.40;99.90
15426;DHT22;7812;50.072;7.036;2024-02-28T10:06:56;7.20;99.90
15426;DHT22;7812;50.072;7.036;2024-02-28T10:09:22;6.80;99.90
15426;DHT22;7812;50.072;7.036;2024-02-28T10:11:48;6.60;99.90
15426;DHT22;7812;50.072;7.036;2024-02-28T10:14:22;6.50;99.90
15426;DHT22;7812;50.072;7.036;2024-02-28T10:16:48;6.70;99.90
15426;DHT22;7812;50.072;7.036;2024-02-28T10:19:14;7.00;99.90
15426;DHT22;7812;50.072;7.036;2024-02-28T10:21:39;7.10;99.90
15426;DHT22;7812;50.072;7.036;2024-02-28T10:24:05;7.20;99.90
15426;DHT22;7812;50.072;7.036;2024-02-28T10:26:31;7.30;99.90
15426;DHT22;7812;50.072;7.036;2024-02-28T10:29:03;7.60;99.90
15426;DHT22;7812;50.072;7.036;2024-02-28T10:31:32;7.50;99.90
15426;DHT22;7812;50.072;7.036;2024-02-28T10:33:58;7.60;99.90
15426;DHT22;7812;50.072;7.036;2024-02-28T10:36:24;7.90;99.90
15426;DHT22;7812;50.072;7.036;2024-02-28T10:38:50;8.00;99.90
15426;DHT22;7812;50.072;7.036;2024-02-28T10:41:16;8.00;99.90
15426;DHT22;7812;50.072;7.036;2024-02-28T10:43:44;8.00;99.90
15426;DHT22;7812;50.072;7.036;2024-02-28T10:46:10;7.80;99.90
15426;DHT22;7812;50.072;7.036;2024-02-28T10:48:36;7.70;99.90
15426;DHT22;7812;50.072;7.036;2024-02-28T10:51:03;7.90;99.90
15426;DHT22;7812;50.072;7.036;2024-02-28T10:53:37;7.60;99.90
15426;DHT22;7812;50.072;7.036;2024-02-28T10:56:09;7.60;99.90
15426;DHT22;7812;50.072;7.036;2024-02-28T10:58:38;6.90;99.90
15426;DHT22;7812;50.072;7.036;2024-02-28T11:01:06;6.80;99.90
15426;DHT22;7812;50.072;7.036;2024-02-28T11:03:32;6.90;99.90
15426;DHT22;7812;50.072;7.036;2024-02-28T11:05:58;7.30;99.90
15426;DHT22;7812;50.072;7.036;2024-02-28T11:08:26;7.20;99.90
15426;DHT22;7812;50.072;7.036;2024-02-28T11:10:57;6.60;99.90
15426;DHT22;7812;50.072;7.036;2024-02-28T11:13:27;6.60;99.90
15426;DHT22;7812;50.072;7.036;2024-02-28T11:15:53;7.20;99.90
15426;DHT22;7812;50.072;7.036;2024-02-28T11:18:20;7.50;99.90
15426;DHT22;7812;50.072;7.036;2024-02-28T11:20:46;7.50;99.90
15426;DHT22;7812;50.072;7.036;2024-02-28T11:23:13;7.90;99.90
15426;DHT22;7812;50.072;7.036;2024-02-28T11:25:40;8.70;99.90
15426;DHT22;7812;50.072;7.036;2024-02-28T11:28:06;9.20;99.90
15426;DHT22;7812;50.072;7.036;2024-02-28T11:30:32;9.20;99.90
15426;DHT22;7812;50.072;7.036;2024-02-28T11:32:58;9.00;99.90
15426;DHT22;7812;50.072;7.036;2024-02-28T11:35:26;9.00;99.90
15426;DHT22;7812;50.072;7.036;2024-02-28T11:37:54;9.70;99.90
15426;DHT22;7812;50.072;7.036;2024-02-28T11:40:23;9.40;99.90
15426;DHT22;7812;50.072;7.036;2024-02-28T11:42:51;9.30;99.90
15426;DHT22;7812;50.072;7.036;2024-02-28T11:45:17;9.80;99.90
15426;DHT22;7812;50.072;7.036;2024-02-28T11:47:44;10.50;99.90
15426;DHT22;7812;50.072;7.036;2024-02-28T11:50:09;11.70;99.90
15426;DHT22;7812;50.072;7.036;2024-02-28T11:52:35;12.60;99.90
15426;DHT22;7812;50.072;7.036;2024-02-28T11:55:01;12.10;99.90
15426;DHT22;7812;50.072;7.036;2024-02-28T11:57:26;11.00;99.90
15426;DHT22;7812;50.072;7.036;2024-02-28T11:59:54;12.20;99.90
15426;DHT22;7812;50.072;7.036;2024-02-28T12:02:23;14.20;99.90
15426;DHT22;7812;50.072;7.036;2024-02-28T12:04:52;14.40;99.90
15426;DHT22;7812;50.072;7.036;2024-02-28T12:07:19;15.20;99.90
15426;DHT22;7812;50.072;7.036;2024-02-28T12:09:46;14.00;99.90
15426;DHT22;7812;50.072;7.036;2024-02-28T12:12:13;15.30;99.90
15426;DHT22;7812;50.072;7.036;2024-02-28T12:14:39;16.40;99.90
15426;DHT22;7812;50.072;7.036;2024-02-28T12:17:05;17.40;99.90
15426;DHT22;7812;50.072;7.036;2024-02-28T12:19:31;17.10;99.90
15426;DHT22;7812;50.072;7.036;2024-02-28T12:21:57;17.80;99.90
15426;DHT22;7812;50.072;7.036;2024-02-28T12:24:24;14.40;99.90
15426;DHT22;7812;50.072;7.036;2024-02-28T12:26:49;15.30;99.90
15426;DHT22;7812;50.072;7.036;2024-02-28T12:29:15;15.60;99.90
15426;DHT22;7812;50.072;7.036;2024-02-28T12:31:41;16.20;99.90
15426;DHT22;7812;50.072;7.036;2024-02-28T12:34:06;16.60;99.90
15426;DHT22;7812;50.072;7.036;2024-02-28T12:36:32;15.70;99.90
15426;DHT22;7812;50.072;7.036;2024-02-28T12:38:58;15.90;99.90
15426;DHT22;7812;50.072;7.036;2024-02-28T12:41:26;17.00;99.90
15426;DHT22;7812;50.072;7.036;2024-02-28T12:43:52;17.70;99.90
15426;DHT22;7812;50.072;7.036;2024-02-28T12:46:17;18.30;99.90
15426;DHT22;7812;50.072;7.036;2024-02-28T12:48:43;18.90;99.90
15426;DHT22;7812;50.072;7.036;2024-02-28T12:51:21;19.30;99.90
15426;DHT22;7812;50.072;7.036;2024-02-28T12:54:00;19.10;99.90
15426;DHT22;7812;50.072;7.036;2024-02-28T12:56:26;17.60;99.90
15426;DHT22;7812;50.072;7.036;2024-02-28T12:58:52;18.30;99.90
15426;DHT22;7812;50.072;7.036;2024-02-28T13:01:17;18.90;99.90
15426;DHT22;7812;50.072;7.036;2024-02-28T13:03:43;19.30;99.90
15426;DHT22;7812;50.072;7.036;2024-02-28T13:06:08;19.30;99.90
15426;DHT22;7812;50.072;7.036;2024-02-28T13:08:34;18.20;99.90
15426;DHT22;7812;50.072;7.036;2024-02-28T13:11:00;18.60;99.90
15426;DHT22;7812;50.072;7.036;2024-02-28T13:13:26;18.60;99.90
15426;DHT22;7812;50.072;7.036;2024-02-28T13:15:52;18.70;99.90
15426;DHT22;7812;50.072;7.036;2024-02-28T13:18:17;18.70;99.90
15426;DHT22;7812;50.072;7.036;2024-02-28T13:20:44;17.50;99.90
15426;DHT22;7812;50.072;7.036;2024-02-28T13:23:10;16.30;99.90
15426;DHT22;7812;50.072;7.036;2024-02-28T13:25:35;17.00;99.90
15426;DHT22;7812;50.072;7.036;2024-02-28T13:28:01;17.50;99.90
15426;DHT22;7812;50.072;7.036;2024-02-28T13:30:27;17.50;99.90
15426;DHT22;7812;50.072;7.036;2024-02-28T13:32:52;17.30;99.90
15426;DHT22;7812;50.072;7.036;2024-02-28T13:35:18;17.60;99.90
15426;DHT22;7812;50.072;7.036;2024-02-28T13:37:44;17.90;99.90
15426;DHT22;7812;50.072;7.036;2024-02-28T13:40:10;17.90;99.90
15426;DHT22;7812;50.072;7.036;2024-02-28T13:42:38;16.00;99.90
15426;DHT22;7812;50.072;7.036;2024-02-28T13:45:05;15.00;99.90
15426;DHT22;7812;50.072;7.036;2024-02-28T13:47:34;15.40;99.90
15426;DHT22;7812;50.072;7.036;2024-02-28T13:50:01;15.20;99.90
15426;DHT22;7812;50.072;7.036;2024-02-28T13:52:26;14.80;99.90
15426;DHT22;7812;50.072;7.036;2024-02-28T13:54:52;14.60;99.90
15426;DHT22;7812;50.072;7.036;2024-02-28T13:57:18;14.50;99.90
15426;DHT22;7812;50.072;7.036;2024-02-28T13:59:44;14.20;99.90
15426;DHT22;7812;50.072;7.036;2024-02-28T14:02:15;14.40;99.90
15426;DHT22;7812;50.072;7.036;2024-02-28T14:04:40;14.30;99.90
15426;DHT22;7812;50.072;7.036;2024-02-28T14:07:08;14.40;99.90
15426;DHT22;7812;50.072;7.036;2024-02-28T14:09:34;14.70;99.90
15426;DHT22;7812;50.072;7.036;2024-02-28T14:12:00;14.70;99.90
15426;DHT22;7812;50.072;7.036;2024-02-28T14:14:25;14.80;99.90
15426;DHT22;7812;50.072;7.036;2024-02-28T14:16:51;14.70;99.90
15426;DHT22;7812;50.072;7.036;2024-02-28T14:19:17;14.30;99.90
15426;DHT22;7812;50.072;7.036;2024-02-28T14:21:42;14.30;99.90
15426;DHT22;7812;50.072;7.036;2024-02-28T14:24:08;14.20;99.90
15426;DHT22;7812;50.072;7.036;2024-02-28T14:26:34;14.30;99.90
15426;DHT22;7812;50.072;7.036;2024-02-28T14:29:00;14.60;99.90
15426;DHT22;7812;50.072;7.036;2024-02-28T14:31:25;14.50;99.90
15426;DHT22;7812;50.072;7.036;2024-02-28T14:33:52;13.90;99.90
15426;DHT22;7812;50.072;7.036;2024-02-28T14:36:19;13.60;99.90
15426;DHT22;7812;50.072;7.036;2024-02-28T14:38:45;13.40;99.90
15426;DHT22;7812;50.072;7.036;2024-02-28T14:41:11;12.80;99.90
15426;DHT22;7812;50.072;7.036;2024-02-28T14:43:38;12.80;99.90
15426;DHT22;7812;50.072;7.036;2024-02-28T14:46:03;13.20;99.90
15426;DHT22;7812;50.072;7.036;2024-02-28T14:48:29;13.50;99.90
15426;DHT22;7812;50.072;7.036;2024-02-28T14:50:56;13.50;99.90
15426;DHT22;7812;50.072;7.036;2024-02-28T14:53:22;13.30;99.90
15426;DHT22;7812;50.072;7.036;2024-02-28T14:55:48;13.40;99.90
15426;DHT22;7812;50.072;7.036;2024-02-28T14:58:14;13.30;99.90
15426;DHT22;7812;50.072;7.036;2024-02-28T15:00:40;13.20;99.90
15426;DHT22;7812;50.072;7.036;2024-02-28T15:03:05;13.20;99.90
15426;DHT22;7812;50.072;7.036;2024-02-28T15:05:31;13.00;99.90
15426;DHT22;7812;50.072;7.036;2024-02-28T15:07:57;12.90;99.90
15426;DHT22;7812;50.072;7.036;2024-02-28T15:10:22;13.00;99.90
15426;DHT22;7812;50.072;7.036;2024-02-28T15:12:48;12.90;99.90
15426;DHT22;7812;50.072;7.036;2024-02-28T15:15:14;12.70;99.90
15426;DHT22;7812;50.072;7.036;2024-02-28T15:17:40;12.70;99.90
15426;DHT22;7812;50.072;7.036;2024-02-28T15:20:06;12.60;99.90
15426;DHT22;7812;50.072;7.036;2024-02-28T15:22:33;12.40;99.90
15426;DHT22;7812;50.072;7.036;2024-02-28T15:24:59;12.30;99.90
15426;DHT22;7812;50.072;7.036;2024-02-28T15:27:25;12.20;99.90
15426;DHT22;7812;50.072;7.036;2024-02-28T15:29:51;12.20;99.90
15426;DHT22;7812;50.072;7.036;2024-02-28T15:32:16;12.30;99.90
15426;DHT22;7812;50.072;7.036;2024-02-28T15:34:42;12.20;99.90
15426;DHT22;7812;50.072;7.036;2024-02-28T15:37:08;12.10;99.90
15426;DHT22;7812;50.072;7.036;2024-02-28T15:39:34;12.00;99.90
15426;DHT22;7812;50.072;7.036;2024-02-28T15:42:00;11.90;99.90
15426;DHT22;7812;50.072;7.036;2024-02-28T15:44:26;11.70;99.90
15426;DHT22;7812;50.072;7.036;2024-02-28T15:46:52;11.60;99.90
15426;DHT22;7812;50.072;7.036;2024-02-28T15:49:17;11.50;99.90
15426;DHT22;7812;50.072;7.036;2024-02-28T15:51:45;11.50;99.90